createdAt,value
2023-04-22T00:01:16.680Z,8.43
2023-04-22T00:04:02.625Z,8.10
2023-04-22T00:06:48.076Z,8.50
2023-04-22T00:09:33.726Z,8.27
2023-04-22T00:12:18.829Z,8.35
2023-04-22T00:15:05.171Z,9.30
2023-04-22T00:17:50.750Z,9.50
2023-04-22T00:20:35.737Z,9.27
2023-04-22T00:23:20.641Z,9.23
2023-04-22T00:26:06.055Z,9.40
2023-04-22T00:28:51.338Z,10.35
2023-04-22T00:31:36.385Z,9.27
2023-04-22T00:34:21.563Z,9.63
2023-04-22T00:37:06.520Z,9.80
2023-04-22T00:39:51.898Z,10.07
2023-04-22T00:42:37.650Z,10.02
2023-04-22T00:45:23.002Z,9.73
2023-04-22T00:48:08.370Z,10.07
2023-04-22T00:50:53.742Z,10.10
2023-04-22T00:53:38.718Z,9.80
2023-04-22T00:56:26.330Z,11.23
2023-04-22T00:59:12.531Z,10.35
2023-04-22T01:01:57.967Z,11.02
2023-04-22T01:04:43.429Z,11.27
2023-04-22T01:07:28.585Z,11.30
2023-04-22T01:10:13.720Z,11.68
2023-04-22T01:12:58.687Z,11.27
2023-04-22T01:15:44.181Z,11.55
2023-04-22T01:18:29.748Z,11.50
2023-04-22T01:21:14.754Z,11.23
2023-04-22T01:24:01.563Z,11.48
2023-04-22T01:26:48.216Z,12.98
2023-04-22T01:29:33.817Z,13.93
2023-04-22T01:32:19.057Z,12.73
2023-04-22T01:35:04.432Z,12.75
2023-04-22T01:37:49.398Z,12.10
2023-04-22T01:40:34.723Z,12.82
2023-04-22T01:43:20.166Z,12.70
2023-04-22T01:46:06.405Z,12.60
2023-04-22T01:48:51.725Z,11.07
2023-04-22T01:51:36.752Z,12.45
2023-04-22T01:54:21.861Z,12.75
2023-04-22T01:57:12.028Z,13.20
2023-04-22T01:59:57.248Z,13.65
2023-04-22T02:02:42.666Z,12.77
2023-04-22T02:05:27.921Z,12.55
2023-04-22T02:08:12.809Z,12.65
2023-04-22T02:10:57.657Z,11.77
2023-04-22T02:13:42.650Z,11.43
2023-04-22T02:16:28.029Z,12.13
2023-04-22T02:19:13.485Z,11.73
2023-04-22T02:21:59.040Z,11.38
2023-04-22T02:24:44.190Z,12.00
2023-04-22T02:27:29.777Z,11.82
2023-04-22T02:30:15.047Z,11.38
2023-04-22T02:32:59.871Z,12.00
2023-04-22T02:35:45.467Z,10.93
2023-04-22T02:38:30.555Z,10.95
2023-04-22T02:41:15.361Z,12.18
2023-04-22T02:44:00.783Z,10.32
2023-04-22T02:46:46.057Z,11.05
2023-04-22T02:49:31.248Z,11.20
2023-04-22T02:52:16.190Z,9.95
2023-04-22T02:55:01.660Z,10.68
2023-04-22T02:57:46.643Z,10.60
2023-04-22T03:00:32.014Z,10.63
2023-04-22T03:03:17.528Z,11.32
2023-04-22T03:06:02.665Z,10.18
2023-04-22T03:08:48.133Z,9.90
2023-04-22T03:11:33.357Z,9.57
2023-04-22T03:14:18.635Z,9.07
2023-04-22T03:17:04.035Z,9.35
2023-04-22T03:19:49.420Z,10.40
2023-04-22T03:22:34.188Z,9.55
2023-04-22T03:25:19.782Z,9.57
2023-04-22T03:28:05.003Z,9.88
2023-04-22T03:30:50.490Z,9.93
2023-04-22T03:33:35.354Z,9.82
2023-04-22T03:36:20.326Z,9.90
2023-04-22T03:39:05.855Z,10.65
2023-04-22T03:41:51.056Z,10.27
2023-04-22T03:44:36.063Z,10.48
2023-04-22T03:47:21.376Z,10.70
2023-04-22T03:50:07.324Z,10.57
2023-04-22T03:52:52.815Z,10.30
2023-04-22T03:55:38.061Z,10.80
2023-04-22T03:58:23.313Z,10.70
2023-04-22T04:01:08.837Z,10.57
2023-04-22T04:03:54.416Z,9.70
2023-04-22T04:06:39.666Z,10.60
2023-04-22T04:09:24.655Z,10.02
2023-04-22T04:12:09.855Z,10.05
2023-04-22T04:14:55.086Z,9.93
2023-04-22T04:17:40.222Z,10.43
2023-04-22T04:20:25.543Z,10.68
2023-04-22T04:23:10.888Z,10.45
2023-04-22T04:25:56.321Z,10.15
2023-04-22T04:28:41.643Z,11.23
2023-04-22T04:31:28.466Z,10.10
2023-04-22T04:34:13.758Z,10.63
2023-04-22T04:36:59.249Z,10.10
2023-04-22T04:39:44.715Z,10.80
2023-04-22T04:42:30.013Z,10.55
2023-04-22T04:45:15.347Z,10.52
2023-04-22T04:48:00.646Z,10.30
2023-04-22T04:50:46.291Z,11.63
2023-04-22T04:53:32.446Z,10.82
2023-04-22T04:56:17.760Z,10.63
2023-04-22T04:59:03.162Z,10.95
2023-04-22T05:01:48.567Z,10.68
2023-04-22T05:04:33.820Z,10.65
2023-04-22T05:07:19.242Z,11.10
2023-04-22T05:10:04.883Z,10.52
2023-04-22T05:12:50.378Z,10.13
2023-04-22T05:15:35.768Z,9.75
2023-04-22T05:18:21.752Z,10.00
2023-04-22T05:21:07.186Z,10.43
2023-04-22T05:23:52.302Z,9.23
2023-04-22T05:26:37.806Z,10.05
2023-04-22T05:29:22.913Z,9.52
2023-04-22T05:32:08.562Z,9.10
2023-04-22T05:34:53.799Z,9.35
2023-04-22T05:37:39.223Z,9.50
2023-04-22T05:40:24.462Z,9.45
2023-04-22T05:43:09.747Z,9.13
2023-04-22T05:45:54.722Z,9.18
2023-04-22T05:48:40.048Z,8.88
2023-04-22T05:51:25.439Z,8.90
2023-04-22T05:54:10.792Z,9.02
2023-04-22T05:56:56.467Z,9.20
2023-04-22T05:59:42.260Z,8.55
2023-04-22T06:02:27.898Z,8.90
2023-04-22T06:05:13.296Z,9.18
2023-04-22T06:07:58.491Z,9.27
2023-04-22T06:10:43.765Z,8.50
2023-04-22T06:13:29.189Z,8.52
2023-04-22T06:16:14.681Z,8.38
2023-04-22T06:19:00.106Z,7.85
2023-04-22T06:21:45.354Z,7.55
2023-04-22T06:24:30.842Z,7.82
2023-04-22T06:27:16.156Z,8.15
2023-04-22T06:30:01.598Z,7.53
2023-04-22T06:32:47.243Z,7.55
2023-04-22T06:35:32.549Z,7.60
2023-04-22T06:38:17.794Z,7.05
2023-04-22T06:41:03.078Z,7.43
2023-04-22T06:43:48.434Z,7.05
2023-04-22T06:46:33.915Z,6.97
2023-04-22T06:49:19.323Z,6.90
2023-04-22T06:52:05.695Z,6.65
2023-04-22T06:54:51.056Z,5.90
2023-04-22T06:57:36.457Z,6.60
2023-04-22T07:00:21.724Z,6.13
2023-04-22T07:03:07.025Z,6.88
2023-04-22T07:05:52.327Z,6.50
2023-04-22T07:08:37.545Z,6.80
2023-04-22T07:11:23.049Z,6.90
2023-04-22T07:14:08.205Z,6.93
2023-04-22T07:16:53.937Z,6.90
2023-04-22T07:19:39.574Z,7.43
2023-04-22T07:22:24.811Z,7.10
2023-04-22T07:25:10.164Z,6.95
2023-04-22T07:27:55.269Z,6.80
2023-04-22T07:30:40.652Z,6.80
2023-04-22T07:33:25.987Z,6.88
2023-04-22T07:36:11.409Z,6.53
2023-04-22T07:38:56.415Z,6.65
2023-04-22T07:41:41.698Z,6.25
2023-04-22T07:44:27.120Z,5.80
2023-04-22T07:47:12.711Z,6.05
2023-04-22T07:49:57.895Z,6.65
2023-04-22T07:52:43.375Z,5.53
2023-04-22T07:55:28.750Z,6.20
2023-04-22T07:58:14.224Z,5.68
2023-04-22T08:00:59.664Z,15.48
2023-04-22T08:03:45.248Z,13.82
2023-04-22T08:06:30.632Z,5.47
2023-04-22T08:09:16.047Z,5.13
2023-04-22T08:12:01.557Z,4.95
2023-04-22T08:14:46.540Z,5.13
2023-04-22T08:17:32.208Z,5.72
2023-04-22T08:20:21.769Z,5.07
2023-04-22T08:23:07.082Z,4.60
2023-04-22T08:25:52.473Z,4.60
2023-04-22T08:28:38.210Z,4.88
2023-04-22T08:31:23.436Z,4.40
2023-04-22T08:34:13.487Z,4.22
2023-04-22T08:36:58.992Z,4.22
2023-04-22T08:39:44.104Z,4.20
2023-04-22T08:42:29.623Z,4.05
2023-04-22T08:45:15.521Z,4.03
2023-04-22T08:48:02.479Z,3.80
2023-04-22T08:50:48.422Z,3.47
2023-04-22T08:53:34.070Z,3.58
2023-04-22T08:56:20.548Z,3.38
2023-04-22T08:59:05.733Z,3.58
2023-04-22T09:01:53.090Z,3.90
2023-04-22T09:04:38.420Z,3.60
2023-04-22T09:07:26.784Z,3.63
2023-04-22T09:10:11.861Z,3.50
2023-04-22T09:12:58.878Z,3.40
2023-04-22T09:15:44.215Z,3.60
2023-04-22T09:18:29.658Z,3.30
2023-04-22T09:21:15.034Z,3.20
2023-04-22T09:24:00.524Z,3.28
2023-04-22T09:26:46.257Z,3.00
2023-04-22T09:29:31.610Z,3.20
2023-04-22T09:32:17.612Z,3.30
2023-04-22T09:35:02.744Z,3.55
2023-04-22T09:37:51.788Z,3.22
2023-04-22T09:40:40.972Z,3.35
2023-04-22T09:43:26.342Z,3.33
2023-04-22T09:46:11.660Z,3.35
2023-04-22T09:48:58.819Z,3.28
2023-04-22T09:51:44.078Z,3.47
2023-04-22T09:54:29.256Z,3.47
2023-04-22T09:57:14.659Z,2.75
2023-04-22T09:59:59.991Z,2.70
2023-04-22T10:02:45.552Z,3.10
2023-04-22T10:05:31.293Z,3.03
2023-04-22T10:08:17.025Z,3.10
2023-04-22T10:11:02.027Z,2.70
2023-04-22T10:13:47.311Z,2.70
2023-04-22T10:16:34.714Z,3.00
2023-04-22T10:19:21.962Z,2.15
2023-04-22T10:22:10.843Z,2.45
2023-04-22T10:24:56.074Z,2.50
2023-04-22T10:27:41.882Z,2.40
2023-04-22T10:30:29.224Z,2.80
2023-04-22T10:33:20.786Z,2.33
2023-04-22T10:36:12.275Z,2.30
2023-04-22T10:38:57.602Z,2.55
2023-04-22T10:42:08.614Z,2.55
2023-04-22T10:45:00.871Z,2.60
2023-04-22T10:47:46.087Z,2.72
2023-04-22T10:50:32.084Z,2.30
2023-04-22T10:53:36.776Z,2.55
2023-04-22T10:56:21.769Z,2.28
2023-04-22T10:59:16.763Z,2.30
2023-04-22T11:02:03.375Z,2.35
2023-04-22T11:04:49.113Z,2.33
2023-04-22T11:07:34.360Z,2.10
2023-04-22T11:10:32.036Z,2.25
2023-04-22T11:13:21.752Z,2.20
2023-04-22T11:16:08.775Z,2.20
2023-04-22T11:19:11.468Z,2.15
2023-04-22T11:21:56.947Z,2.30
2023-04-22T11:24:54.303Z,2.35
2023-04-22T11:27:41.245Z,2.45
2023-04-22T11:30:28.488Z,2.30
2023-04-22T11:33:15.157Z,2.45
2023-04-22T11:36:00.729Z,2.35
2023-04-22T11:39:08.646Z,2.17
2023-04-22T11:41:53.850Z,2.40
2023-04-22T11:44:39.693Z,2.45
2023-04-22T11:47:25.015Z,2.47
2023-04-22T11:50:11.837Z,2.40
2023-04-22T11:53:15.633Z,2.60
2023-04-22T11:56:02.788Z,2.40
2023-04-22T11:58:47.988Z,2.10
2023-04-22T12:01:33.305Z,2.30
2023-04-22T12:04:21.749Z,2.63
2023-04-22T12:07:07.463Z,2.50
2023-04-22T12:09:56.403Z,2.53
2023-04-22T12:12:41.893Z,2.63
2023-04-22T12:15:27.096Z,2.65
2023-04-22T12:18:12.028Z,2.42
2023-04-22T12:21:06.782Z,2.25
2023-04-22T12:23:54.759Z,2.20
2023-04-22T12:26:39.895Z,2.30
2023-04-22T12:29:33.335Z,2.45
2023-04-22T12:32:20.382Z,2.33
2023-04-22T12:35:05.604Z,2.40
2023-04-22T12:37:52.341Z,2.40
2023-04-22T12:40:37.580Z,2.30
2023-04-22T12:43:22.898Z,2.50
2023-04-22T12:46:09.078Z,2.70
2023-04-22T12:48:54.676Z,2.33
2023-04-22T12:51:40.200Z,2.58
2023-04-22T12:54:25.478Z,2.42
2023-04-22T12:57:10.493Z,2.70
2023-04-22T12:59:55.865Z,2.50
2023-04-22T13:02:42.690Z,2.63
2023-04-22T13:05:28.238Z,2.30
2023-04-22T13:08:13.443Z,2.30
2023-04-22T13:10:58.792Z,2.40
2023-04-22T13:13:44.200Z,2.55
2023-04-22T13:16:29.764Z,2.67
2023-04-22T13:19:14.828Z,2.47
2023-04-22T13:21:59.911Z,2.42
2023-04-22T13:24:45.565Z,2.28
2023-04-22T13:27:30.635Z,2.47
2023-04-22T13:30:16.043Z,2.78
2023-04-22T13:33:01.493Z,2.40
2023-04-22T13:35:46.871Z,2.80
2023-04-22T13:38:32.303Z,2.42
2023-04-22T13:41:17.228Z,2.40
2023-04-22T13:44:02.846Z,2.40
2023-04-22T13:46:48.229Z,2.30
2023-04-22T13:49:33.697Z,2.35
2023-04-22T13:52:19.078Z,2.60
2023-04-22T13:55:04.746Z,2.30
2023-04-22T13:57:51.266Z,2.50
2023-04-22T14:00:36.291Z,2.75
2023-04-22T14:03:22.019Z,2.55
2023-04-22T14:06:07.656Z,2.65
2023-04-22T14:08:52.748Z,2.70
2023-04-22T14:11:37.734Z,2.42
2023-04-22T14:14:23.052Z,2.40
2023-04-22T14:17:08.256Z,2.58
2023-04-22T14:19:53.503Z,2.50
2023-04-22T14:22:38.919Z,2.38
2023-04-22T14:25:24.562Z,2.50
2023-04-22T14:28:10.552Z,2.63
2023-04-22T14:30:55.725Z,3.10
2023-04-22T14:33:40.815Z,2.80
2023-04-22T14:36:25.955Z,2.45
2023-04-22T14:39:10.957Z,2.75
2023-04-22T14:41:56.352Z,2.65
2023-04-22T14:44:42.704Z,3.20
2023-04-22T14:47:28.156Z,2.88
2023-04-22T14:50:13.503Z,2.90
2023-04-22T14:52:58.804Z,2.60
2023-04-22T14:55:43.781Z,2.58
2023-04-22T14:58:29.253Z,2.65
2023-04-22T15:01:14.677Z,2.50
2023-04-22T15:04:00.317Z,2.67
2023-04-22T15:06:45.537Z,2.50
2023-04-22T15:09:31.042Z,2.88
2023-04-22T15:12:17.030Z,2.80
2023-04-22T15:15:02.333Z,2.97
2023-04-22T15:17:47.547Z,2.92
2023-04-22T15:20:32.464Z,2.70
2023-04-22T15:23:17.838Z,2.90
2023-04-22T15:26:02.998Z,2.90
2023-04-22T15:28:48.477Z,2.72
2023-04-22T15:31:33.594Z,2.60
2023-04-22T15:34:18.847Z,2.85
2023-04-22T15:37:04.309Z,2.85
2023-04-22T15:39:49.587Z,2.75
2023-04-22T15:42:34.908Z,2.70
2023-04-22T15:45:20.317Z,2.58
2023-04-22T15:48:05.825Z,2.53
2023-04-22T15:50:51.026Z,2.72
2023-04-22T15:53:36.989Z,2.90
2023-04-22T15:56:22.005Z,2.63
2023-04-22T15:59:06.908Z,2.60
2023-04-22T16:01:52.247Z,2.90
2023-04-22T16:04:37.687Z,2.60
2023-04-22T16:07:22.959Z,2.78
2023-04-22T16:10:09.022Z,3.00
2023-04-22T16:12:53.944Z,2.95
2023-04-22T16:15:38.922Z,2.78
2023-04-22T16:18:24.983Z,3.20
2023-04-22T16:21:10.062Z,2.80
2023-04-22T16:23:55.345Z,3.20
2023-04-22T16:26:40.180Z,3.55
2023-04-22T16:29:25.699Z,3.40
2023-04-22T16:32:11.581Z,3.47
2023-04-22T16:34:57.133Z,3.20
2023-04-22T16:37:43.171Z,3.20
2023-04-22T16:40:28.542Z,3.40
2023-04-22T16:43:13.627Z,3.38
2023-04-22T16:45:59.228Z,3.25
2023-04-22T16:48:44.271Z,3.90
2023-04-22T16:51:29.607Z,3.53
2023-04-22T16:54:14.918Z,4.05
2023-04-22T16:56:59.768Z,3.60
2023-04-22T16:59:45.103Z,3.63
2023-04-22T17:02:30.684Z,3.65
2023-04-22T17:05:15.965Z,3.38
2023-04-22T17:08:01.255Z,3.65
2023-04-22T17:10:47.095Z,3.42
2023-04-22T17:13:32.306Z,3.53
2023-04-22T17:16:18.118Z,3.70
2023-04-22T17:19:03.373Z,3.45
2023-04-22T17:21:48.294Z,4.00
2023-04-22T17:24:33.783Z,4.00
2023-04-22T17:27:19.094Z,3.90
2023-04-22T17:30:04.493Z,3.50
2023-04-22T17:32:49.836Z,3.70
2023-04-22T17:35:35.042Z,3.92
2023-04-22T17:38:20.254Z,3.88
2023-04-22T17:41:05.654Z,3.67
2023-04-22T17:43:51.391Z,4.03
2023-04-22T17:46:36.568Z,4.18
2023-04-22T17:49:21.870Z,4.03
2023-04-22T17:52:07.194Z,3.90
2023-04-22T17:54:52.747Z,4.25
2023-04-22T17:57:38.115Z,4.30
2023-04-22T18:00:36.652Z,4.20
2023-04-22T18:03:22.807Z,3.90
2023-04-22T18:06:08.361Z,4.10
2023-04-22T18:08:55.922Z,4.03
2023-04-22T18:11:41.720Z,4.20
2023-04-22T18:14:26.785Z,4.30
2023-04-22T18:17:11.953Z,3.90
2023-04-22T18:20:09.881Z,3.83
2023-04-22T18:22:59.676Z,4.32
2023-04-22T18:25:45.100Z,4.38
2023-04-22T18:28:30.627Z,4.43
2023-04-22T18:31:16.032Z,4.07
2023-04-22T18:34:01.414Z,4.32
2023-04-22T18:36:46.829Z,4.80
2023-04-22T18:39:32.386Z,4.43
2023-04-22T18:42:18.281Z,4.45
2023-04-22T18:45:04.755Z,4.53
2023-04-22T18:47:50.229Z,4.70
2023-04-22T18:50:35.501Z,4.68
2023-04-22T18:53:21.047Z,4.35
2023-04-22T18:56:06.418Z,4.43
2023-04-22T18:58:51.789Z,4.60
2023-04-22T19:01:37.276Z,4.82
2023-04-22T19:04:22.812Z,4.82
2023-04-22T19:07:13.506Z,5.07
2023-04-22T19:10:02.108Z,4.93
2023-04-22T19:12:47.629Z,4.55
2023-04-22T19:15:32.896Z,4.65
2023-04-22T19:18:18.300Z,5.07
2023-04-22T19:21:03.920Z,6.03
2023-04-22T19:23:49.682Z,5.03
2023-04-22T19:26:35.279Z,4.70
2023-04-22T19:29:20.469Z,4.63
2023-04-22T19:32:05.870Z,15.77
2023-04-22T19:34:50.862Z,5.60
2023-04-22T19:37:36.197Z,5.93
2023-04-22T19:40:21.653Z,6.25
2023-04-22T19:43:07.882Z,5.65
2023-04-22T19:45:52.953Z,5.95
2023-04-22T19:48:38.769Z,5.68
2023-04-22T19:51:24.468Z,5.90
2023-04-22T19:54:11.233Z,6.35
2023-04-22T19:56:56.747Z,6.93
2023-04-22T19:59:43.365Z,6.80
2023-04-22T20:02:28.938Z,6.43
2023-04-22T20:05:14.832Z,6.93
2023-04-22T20:08:00.545Z,6.70
2023-04-22T20:10:47.865Z,6.78
2023-04-22T20:14:16.254Z,7.18
2023-04-22T20:17:16.781Z,8.10
2023-04-22T20:20:13.929Z,7.25
2023-04-22T20:23:01.767Z,7.63
2023-04-22T20:25:47.175Z,6.63
2023-04-22T20:28:44.715Z,6.68
2023-04-22T20:31:30.327Z,7.10
2023-04-22T20:34:15.503Z,6.60
2023-04-22T20:37:01.587Z,6.28
2023-04-22T20:43:32.189Z,6.82
2023-04-22T20:46:17.670Z,6.43
2023-04-22T20:49:03.161Z,6.53
2023-04-22T20:51:48.589Z,6.32
2023-04-22T20:54:35.313Z,6.72
2023-04-22T20:57:21.223Z,6.15
2023-04-22T21:00:07.326Z,6.85
2023-04-22T21:02:53.103Z,6.75
2023-04-22T21:05:38.668Z,7.10
2023-04-22T21:08:25.201Z,7.10
2023-04-22T21:11:10.772Z,6.90
2023-04-22T21:13:55.939Z,7.15
2023-04-22T21:16:43.188Z,7.10
2023-04-22T21:19:35.163Z,6.70
2023-04-22T21:22:21.542Z,7.10
2023-04-22T21:25:07.495Z,7.07
2023-04-22T21:27:53.310Z,7.03
2023-04-22T21:30:39.076Z,7.15
2023-04-22T21:33:24.106Z,6.72
2023-04-22T21:36:09.571Z,6.50
2023-04-22T21:38:54.914Z,6.70
2023-04-22T21:41:40.713Z,6.68
2023-04-22T21:44:26.191Z,6.53
2023-04-22T21:47:11.654Z,6.10
2023-04-22T21:49:57.216Z,6.32
2023-04-22T21:52:42.686Z,5.97
2023-04-22T21:55:27.925Z,5.68
2023-04-22T21:58:13.102Z,5.80
2023-04-22T22:00:58.141Z,5.85
2023-04-22T22:03:43.722Z,6.05
2023-04-22T22:06:30.737Z,6.35
2023-04-22T22:09:16.348Z,6.40
2023-04-22T22:12:01.356Z,6.75
2023-04-22T22:14:46.886Z,6.47
2023-04-22T22:17:32.372Z,6.88
2023-04-22T22:20:17.600Z,7.43
2023-04-22T22:23:03.052Z,6.30
2023-04-22T22:25:49.291Z,8.35
2023-04-22T22:28:34.648Z,10.25
2023-04-22T22:31:20.016Z,12.23
2023-04-22T22:34:05.337Z,12.48
2023-04-22T22:36:50.695Z,15.32
2023-04-22T22:39:36.655Z,16.35
2023-04-22T22:42:22.244Z,16.60
2023-04-22T22:45:08.235Z,17.58
2023-04-22T22:47:53.541Z,18.13
2023-04-22T22:50:38.836Z,19.05
2023-04-22T22:53:24.190Z,19.02
2023-04-22T22:56:09.768Z,21.05
2023-04-22T22:58:55.083Z,21.02
2023-04-22T23:01:40.484Z,23.15
2023-04-22T23:04:27.526Z,22.77
2023-04-22T23:07:13.156Z,22.25
2023-04-22T23:09:58.697Z,23.95
2023-04-22T23:12:44.031Z,25.33
2023-04-22T23:15:29.483Z,25.65
2023-04-22T23:18:16.705Z,28.58
2023-04-22T23:21:02.514Z,28.50
2023-04-22T23:23:49.303Z,29.65
2023-04-22T23:26:34.906Z,28.55
2023-04-22T23:29:20.517Z,29.00
2023-04-22T23:32:07.540Z,29.00
2023-04-22T23:34:53.685Z,29.35
2023-04-22T23:37:42.956Z,29.67
2023-04-22T23:40:27.993Z,31.08
2023-04-22T23:43:13.631Z,32.13
2023-04-22T23:45:58.735Z,30.70
2023-04-22T23:48:43.850Z,33.53
2023-04-22T23:51:28.884Z,33.78
2023-04-22T23:54:14.203Z,34.22
2023-04-22T23:57:00.022Z,34.97
2023-04-22T23:59:45.526Z,35.13
